x

Muskegon, Mi (mkgm4) Weather Station

4:50am - Fri 6th Mar 2015 All times are CST. -6 hours from GMT.

  • Wind
    15mph, 18mph gusts
  • Air Temp 16°f
  • Sea Pressure 1032.8mb
  • Muskegon, Mi
  • Muskegon, Mi

More Historic Weather Station data

Upgrade to MSW Pro to gain access to the past 30 days of data for over 8000 Wavebouys and Weather Stations around the globe.

Join Pro

Comparision Forecast

View Surf forecast
   
Fri 03/06 4:50am 15 18 mph 1032.8mb 16f
4:40am 14 17 mph 1033mb 16f
4:30am 17 18 mph 1033.1mb 16f
4:20am 16 20 mph 1033mb 16f
4:10am 16 17 mph 1033mb 16f
4:00am 17 20 mph 1032.9mb 16f
3:50am 15 17 mph 1033mb 15f
3:40am 14 17 mph 1033.1mb 15f
3:30am 17 18 mph 1033mb 15f
3:20am 14 15 mph 1033.3mb 15f
3:10am 16 18 mph 1033.3mb 15f
3:00am 15 17 mph 1033.4mb 16f
2:50am 14 16 mph 1033.4mb 16f
2:40am 16 18 mph 1033.5mb 16f
2:30am 15 16 mph 1033.7mb 16f
2:20am 14 15 mph 1033.8mb 16f
2:10am 15 17 mph 1033.9mb 16f
2:00am 15 16 mph 1034mb 16f
1:40am 15 16 mph 1034.4mb 16f
1:30am 14 16 mph 1034.5mb 16f
1:20am 14 16 mph 1034.5mb 16f
1:10am 14 15 mph 1034.5mb 16f
1:00am 13 15 mph 1034.5mb 16f
12:40am 15 16 mph 1034.5mb 16f
12:30am 14 15 mph 1034.5mb 16f
12:20am 15 17 mph 1034.4mb 17f
12:10am 14 16 mph 1034.3mb 17f
12:00am 16 18 mph 1034.3mb 17f
Thu 03/05 11:50pm 15 16 mph 1034.6mb 17f
11:40pm 14 17 mph 1034.9mb 17f
11:30pm 15 16 mph 1034.8mb 17f
11:20pm 14 15 mph 1034.6mb 17f
11:10pm 11 14 mph 1034.8mb 17f
11:00pm 11 13 mph 1034.8mb 17f
10:50pm 9 11 mph 1034.9mb 17f
10:40pm 11 13 mph 1034.9mb 17f
10:30pm 10 13 mph 1035mb 17f
10:20pm 11 13 mph 1035.2mb 16f
10:10pm 10 13 mph 1035.3mb 16f
10:00pm 11 13 mph 1035.4mb 17f
9:50pm 11 13 mph 1035.5mb 17f
9:40pm 9 11 mph 1035.5mb 17f
9:30pm 11 13 mph 1035.4mb 16f
9:20pm 13 15 mph 1035.4mb 16f
9:10pm 11 13 mph 1035.5mb 16f
9:00pm 10 11 mph 1035.5mb 15f
8:50pm 9 10 mph 1035.5mb 15f
8:40pm 8 9 mph 1035.4mb 15f
8:30pm 9 10 mph 1035.5mb 15f
8:20pm 9 10 mph 1035.5mb 15f
8:10pm 9 10 mph 1035.5mb 15f
8:00pm 8 9 mph 1035.6mb 15f
7:50pm 8 10 mph 1035.6mb 15f
7:40pm 6 7 mph 1035.6mb 14f
7:30pm 6 7 mph 1035.6mb 14f
7:20pm 5 6 mph 1035.6mb 14f
7:10pm 5 6 mph 1035.6mb 14f
7:00pm 5 6 mph 1035.6mb 13f
6:50pm 3 6 mph 1035.7mb 13f
6:40pm 6 7 mph 1035.6mb 13f
6:30pm 6
mph
1035.6mb 13f
6:20pm 5 7 mph 1035.6mb 13f
6:10pm 6 8 mph 1035.4mb 13f
6:00pm 9 10 mph 1035.4mb 14f
5:50pm 7 8 mph 1035.4mb 13f
5:40pm 8 9 mph 1035.4mb 13f
5:30pm 5 6 mph 1035.4mb 13f
5:20pm 7 8 mph 1035.3mb 14f
5:10pm 7 9 mph 1035.3mb 14f
5:00pm 9 10 mph 1035.1mb 14f
4:50pm 8 10 mph 1035mb 13f
4:40pm 10 13 mph 1035mb 14f
4:30pm 11 13 mph 1035mb 14f
4:20pm 9 10 mph 1035mb 14f
4:10pm 10 11 mph 1035mb 14f
4:00pm 8 9 mph 1034.9mb 14f
3:50pm 11
mph
1034.9mb 14f
3:40pm 9 10 mph 1034.7mb 14f
3:30pm 13 14 mph 1034.7mb 15f
3:20pm 11 14 mph 1034.7mb 14f
3:10pm 14 15 mph 1034.6mb 14f
3:00pm 13 16 mph 1034.6mb 14f
2:40pm 14 16 mph 1034.3mb 14f
2:30pm 13 16 mph 1034.2mb 15f
2:20pm 14 16 mph 1034.2mb 15f
2:10pm 13 14 mph 1034mb 15f
2:00pm 15 16 mph 1034mb 15f
1:50pm 16 18 mph 1034mb 15f
1:40pm 17 18 mph 1034mb 15f
1:30pm 15 17 mph 1033.8mb 15f
1:20pm 11 15 mph 1034mb 15f
1:10pm 7 8 mph 1034mb 14f
1:00pm 6
mph
1034.1mb 13f
12:50pm 7 8 mph 1034.2mb 13f
12:40pm 6 7 mph 1034.2mb 13f
12:30pm 7 8 mph 1034.3mb 13f
12:20pm 5 6 mph 1034.5mb 13f
12:10pm 5 6 mph 1034.5mb 13f
12:00pm 6 7 mph 1034.5mb 13f
11:50am 6 7 mph 1034.3mb 14f
11:40am 6 7 mph 1034.3mb 13f
11:30am 6 7 mph 1034.2mb 14f
11:20am 3 5 mph 1034.2mb 14f
11:10am 3 5 mph 1034.1mb 14f
11:00am 3
mph
1034.1mb 14f
10:50am 3 5 mph 1034mb 13f
10:40am 5 6 mph 1033.9mb 13f
10:30am 2 3 mph 1033.9mb 13f
10:20am 2 3 mph 1034mb 13f
10:10am  -  1 mph 1034mb 13f
10:00am 2
mph
1033.9mb 14f
9:50am 2 3 mph 1034mb 13f
9:40am 2
mph
1034mb 13f
9:30am 2 5 mph 1034mb 13f
9:20am 6 8 mph 1034mb 12f
9:10am 6 7 mph 1034.1mb 11f
9:00am 5 7 mph 1034.1mb 10f
8:50am 6 9 mph 1034.3mb 10f
8:40am 5 6 mph 1034.2mb 9f
8:30am 7 8 mph 1034mb 9f
8:20am 7 8 mph 1033.9mb 9f
8:10am 5 6 mph 1033.9mb 8f
8:00am 6 7 mph 1033.9mb 8f
7:50am 7 9 mph 1033.8mb 7f
7:40am 6 9 mph 1033.6mb 7f
7:30am 6 8 mph 1033.5mb 7f
7:20am 6 9 mph 1033.2mb 6f
7:10am 8 10 mph 1032.7mb 6f
7:00am 7 10 mph 1032.7mb 6f
6:50am 6 8 mph 1032.8mb 6f
6:40am 8 9 mph 1032.7mb 6f
6:30am 9 10 mph 1032.8mb 6f
6:20am 8 10 mph 1032.6mb 6f
6:10am 8 9 mph 1032.6mb 6f
6:00am 9 10 mph 1032.6mb 6f
5:50am 7 9 mph 1032.2mb 6f
5:40am 8 10 mph 1032.5mb 6f
5:30am 9 10 mph 1031.9mb 6f
5:20am 10 11 mph 1031.8mb 6f
5:10am 10 13 mph 1032mb 6f
5:00am 11 13 mph 1031.8mb 6f
4:50am 8 9 mph 1031.6mb 6f
4:40am 9 11 mph 1031.4mb 6f
4:30am 10 11 mph 1031.3mb 6f
4:20am 7 9 mph 1031.3mb 6f
4:10am 9 11 mph 1031mb 6f
4:00am 9 11 mph 1031mb 7f
3:50am 9 13 mph 1030.7mb 7f
3:40am 10 13 mph 1030.7mb 8f
3:30am 11 15 mph 1030.2mb 9f
3:20am 9 11 mph 1030.1mb 10f
3:10am 9 13 mph 1030.1mb 10f
3:00am 9 10 mph 1030.1mb 11f
2:50am 9 11 mph 1030.2mb 11f
2:40am 9 13 mph 1030.1mb 11f
2:30am 13 15 mph 1029.7mb 11f
2:20am 10 14 mph 1029.8mb 11f
2:10am 13 15 mph 1029.7mb 11f
2:00am 11 17 mph 1030mb 11f
1:50am 10 14 mph 1030.4mb 12f
1:40am 8 9 mph 1030.5mb 12f
1:30am 8 10 mph 1030.5mb 12f
1:20am 8 10 mph 1030.4mb 12f
1:10am 7 8 mph 1030.5mb 12f
1:00am 10 14 mph 1029.9mb 13f
12:50am 6 7 mph 1029.9mb 13f
12:40am 7 11 mph 1030.1mb 13f
12:30am 10 13 mph 1029.8mb 13f
12:20am 8 10 mph 1029.7mb 13f
12:10am 7 9 mph 1029.8mb 14f
12:00am 8 10 mph 1029.8mb 14f
Wed 03/04 11:50pm 9 10 mph 1029.6mb 14f
11:40pm 11 16 mph 1029.6mb 14f
11:30pm 9 11 mph 1029.6mb 14f
11:20pm 15 20 mph 1029.6mb 14f
11:10pm 15 20 mph 1029.2mb 14f
11:00pm 14 17 mph 1029.2mb 14f
10:50pm 13 15 mph 1029.5mb 15f
10:40pm 17 20 mph 1029.3mb 15f
10:30pm 14 17 mph 1029.7mb 15f
10:20pm 15 16 mph 1028.9mb 14f
10:10pm 17 23 mph 1027.8mb 14f
10:00pm 17 22 mph 1028.2mb 15f
9:50pm 14 16 mph 1028.7mb 15f
9:40pm 17 20 mph 1028.2mb 15f
9:30pm 17 22 mph 1028.8mb 15f
9:20pm 16 20 mph 1028.8mb 15f
9:10pm 18 21 mph 1028.6mb 15f
9:00pm 17 20 mph 1028.2mb 15f
8:50pm 14 17 mph 1028.2mb 15f
8:40pm 20 23 mph 1027.7mb 15f
8:30pm 18 21 mph 1027.4mb 15f
8:20pm 24 26 mph 1027mb 16f
8:10pm 18 21 mph 1026.5mb 15f
8:00pm 21 24 mph 1026.3mb 15f
7:50pm 23 26 mph 1026.1mb 15f
7:40pm 23 25 mph 1025.8mb 15f
7:30pm 23 26 mph 1025.6mb 16f
7:20pm 22 25 mph 1025.6mb 16f
7:10pm 24 26 mph 1025.5mb 16f
7:00pm 25 29 mph 1026mb 17f
6:50pm 23 28 mph 1025.8mb 16f
6:40pm 23 26 mph 1025.6mb 17f
6:30pm 23 25 mph 1025.1mb 17f
6:20pm 25 29 mph 1024.8mb 17f
6:10pm 25 29 mph 1024.8mb 17f
6:00pm 25 31 mph 1024.4mb 17f
5:50pm 24 28 mph 1024.2mb 17f
5:40pm 24 29 mph 1023.7mb 17f
5:30pm 25 31 mph 1023.7mb 17f
5:20pm 25 31 mph 1023.6mb 17f
5:10pm 28 32 mph 1023.4mb 17f
5:00pm 31 34 mph 1023.7mb 17f
4:50pm 30 33 mph 1023.7mb 17f
4:40pm 31 38 mph 1023.7mb 18f
4:30pm 30 34 mph 1023.7mb 18f
4:20pm 21 26 mph 1023.4mb 18f
4:10pm 24 29 mph 1023.7mb 18f
4:00pm 23 25 mph 1023.2mb 18f
3:50pm 23 28 mph 1023.1mb 18f
3:40pm 25 28 mph 1022.7mb 18f
3:30pm 25 29 mph 1022.8mb 19f
3:20pm 26 29 mph 1022.7mb 19f
3:10pm 21 24 mph 1022.6mb 19f
3:00pm 25 28 mph 1022.6mb 19f
2:50pm 23 26 mph 1022.4mb 19f
2:40pm 23 28 mph 1022mb 19f
2:30pm 25 29 mph 1022.1mb 19f
2:20pm 28 30 mph 1022.1mb 18f
2:10pm 24 28 mph 1022.4mb 18f
2:00pm 22 26 mph 1022mb 19f
1:50pm 30 33 mph 1022mb 18f
1:40pm 26 31 mph 1021.6mb 19f
1:30pm 22 25 mph 1022mb 18f
1:20pm 25 28 mph 1021.9mb 17f
1:10pm 23 25 mph 1022.1mb 19f
1:00pm 24 28 mph 1021.9mb 18f
12:50pm 24 26 mph 1021.6mb 18f
12:40pm 21 24 mph 1021.6mb 18f
12:30pm 24 26 mph 1021.7mb 18f
12:20pm 23 26 mph 1021.7mb 18f
12:10pm 22 25 mph 1021.5mb 19f
12:00pm 23 26 mph 1021.6mb 19f
11:50am 22 25 mph 1021.4mb 18f
11:40am 24 28 mph 1021.3mb 19f
11:30am 25 28 mph 1021.2mb 18f
11:20am 22 24 mph 1021.1mb 19f
11:10am 24 28 mph 1020.8mb 19f
11:00am 22 24 mph 1020.2mb 19f
10:50am 21 25 mph 1020mb 19f
10:40am 23 25 mph 1020.2mb 20f
10:30am 22 25 mph 1020.2mb 20f
10:20am 22 23 mph 1020.1mb 20f
10:10am 21 24 mph 1019.8mb 20f
10:00am 22 23 mph 1019.4mb 20f
9:50am 24 25 mph 1019.5mb 20f
9:40am 23 25 mph 1019.4mb 20f
9:30am 20 23 mph 1019.1mb 20f
9:20am 21 23 mph 1019.2mb 20f
9:10am 23 25 mph 1019.1mb 21f
9:00am 20 22 mph 1018.9mb 21f
8:50am 23 26 mph 1019.1mb 21f
8:40am 22 25 mph 1019mb 21f
8:30am 23 25 mph 1018.8mb 21f
8:20am 24 28 mph 1018.7mb 22f
8:10am 22 25 mph 1018.4mb 21f
8:00am 24 28 mph 1018.4mb 22f
7:50am 23 25 mph 1018mb 22f
7:40am 22 24 mph 1017.8mb 22f
7:30am 22 24 mph 1017.5mb 22f
7:20am 22 24 mph 1017.6mb 22f
7:10am 21 23 mph 1017.6mb 22f
7:00am 23 24 mph 1017.5mb 22f
6:50am 21 23 mph 1017.2mb 23f
6:40am 17 18 mph 1017.1mb 23f
6:30am 20 21 mph 1017mb 23f
6:20am 20 22 mph 1016.8mb 22f
6:10am 18 21 mph 1016.7mb 22f
6:00am 20 22 mph 1016.7mb 22f
5:50am 16 17 mph 1016.2mb 22f
5:40am 17 21 mph 1016mb 23f
5:30am 18 20 mph 1015.8mb 23f
5:20am 17 20 mph 1015.8mb 23f
5:10am 20 22 mph 1015.8mb 23f
5:00am 18 23 mph 1015.5mb 24f
4:50am 21 23 mph 1015.3mb 24f
4:40am 20 21 mph 1015.1mb 24f
4:30am 18 20 mph 1014.6mb 24f
4:20am 20 23 mph 1014.5mb 25f
4:10am 18 20 mph 1014.5mb 25f
4:00am 22 24 mph 1013.9mb 25f
3:50am 21 23 mph 1013.8mb 26f
3:40am 23 26 mph 1013.5mb 26f
3:30am 22 24 mph 1013.2mb 26f
3:20am 20 23 mph 1013.1mb 26f
3:10am 21 23 mph 1012.8mb 27f
3:00am 22 24 mph 1012.6mb 27f
2:50am 23 26 mph 1012.2mb 28f
2:40am 18 22 mph 1012.1mb 29f
2:30am 17 21 mph 1012.1mb 29f
2:20am 16 17 mph 1012.1mb 30f
2:10am 16 18 mph 1012.1mb 29f
2:00am 15 17 mph 1012.1mb 29f
1:50am 16 18 mph 1012.1mb 29f
1:40am 16 18 mph 1012.1mb 30f
1:30am 16 17 mph 1012mb 30f
1:20am 18 21 mph 1012.1mb 30f
1:10am 20 23 mph 1011.8mb 30f
1:00am 17 20 mph 1011.8mb 30f
12:50am 16 21 mph 1011.8mb 30f
12:40am 20 22 mph 1011.8mb 30f
12:30am 15 17 mph 1011.8mb 30f
12:20am 14 16 mph 1011.5mb 30f
12:10am 18 21 mph 1011.5mb 30f
12:00am 18 21 mph 1011.6mb 30f
Tue 03/03 11:50pm 20 22 mph 1011.5mb 30f
11:40pm 22 26 mph 1011.2mb 30f
11:30pm 18 21 mph 1011.4mb 31f
11:20pm 20 22 mph 1011mb 31f
11:10pm 17 18 mph 1010.9mb 30f
11:00pm 18 21 mph 1011.2mb 31f
10:50pm 17 20 mph 1011.1mb 30f
10:40pm 14 16 mph 1011.5mb 30f
10:30pm 17 20 mph 1011.2mb 30f
10:20pm 16 18 mph 1011.5mb 30f
10:10pm 17 18 mph 1011.5mb 30f
10:00pm 16 18 mph 1011.5mb 30f
9:50pm 17 21 mph 1011.3mb 30f
9:40pm 17 22 mph 1010.8mb 30f
9:30pm 21 23 mph 1010.8mb 30f
9:20pm 21 23 mph 1010.3mb 30f
9:10pm 18 22 mph 1010mb 29f
9:00pm 21 23 mph 1010.1mb 30f
8:50pm 20 22 mph 1009.9mb 30f
8:40pm 21 22 mph 1010.1mb 30f
8:30pm 20 23 mph 1009.9mb 30f
8:20pm 21 24 mph 1009.6mb 30f
8:10pm 21 23 mph 1009.3mb 30f
8:00pm 18 22 mph 1009.2mb 30f
7:50pm 22 25 mph 1009.1mb 30f
7:40pm 20 24 mph 1009mb 30f
7:30pm 17 20 mph 1008.5mb 30f
7:20pm 5 6 mph 1008.5mb 30f
7:10pm 5 6 mph 1008.2mb 30f
7:00pm 5 6 mph 1007.9mb 31f
6:50pm 6
mph
1007.9mb 31f
6:40pm 5 6 mph 1008mb 31f
6:30pm 6
mph
1007.4mb 31f
6:20pm 5 6 mph 1007mb 31f
6:10pm 5 6 mph 1006.7mb 31f
6:00pm 5 6 mph 1006.6mb 31f
5:50pm 5
mph
1006mb 31f
5:40pm 5
mph
1005.7mb 31f
5:30pm 5
mph
1005.7mb 31f
5:20pm 5
mph
1005.6mb 32f
5:10pm 5
mph
1005.5mb 32f
5:00pm 5
mph
1004.9mb 32f
4:50pm 3
mph
1004.8mb 32f
4:40pm 5
mph
1004.8mb 32f
4:30pm 5
mph
1004.5mb 32f
4:20pm 3 5 mph 1004.2mb 32f
4:10pm 3 5 mph 1004.5mb 32f
4:00pm 5
mph
1004.3mb 32f
3:50pm 3 5 mph 1004.2mb 32f
3:40pm 3 5 mph 1004mb 32f
3:30pm 3 5 mph 1004mb 32f
3:20pm 3
mph
1003.7mb 32f
3:10pm 3
mph
1003.5mb 32f
3:00pm 3 5 mph 1003.6mb 32f
2:50pm 3 5 mph 1003.6mb 32f
2:40pm 3 5 mph 1003.5mb 32f
2:30pm 3
mph
1003.4mb 32f
2:20pm 3 5 mph 1003.2mb 32f
2:10pm 3 5 mph 1003.1mb 32f
2:00pm 5 6 mph 1003.4mb 31f
1:50pm 5
mph
1004.1mb 31f
1:40pm 5 6 mph 1004.1mb 30f
1:30pm 7 8 mph 1004.4mb 30f
1:20pm 7 8 mph 1004.3mb 30f
1:10pm 8 9 mph 1004.6mb 30f
1:00pm 9 11 mph 1004.7mb 29f
12:50pm 9 10 mph 1005.4mb 29f
12:40pm 11 13 mph 1005.6mb 29f
12:30pm 8 10 mph 1005.7mb 28f
12:20pm 10 11 mph 1006.3mb 28f
12:10pm 10 13 mph 1006.4mb 28f
12:00pm 13 14 mph 1006.6mb 27f
11:50am 11 14 mph 1007mb 27f
11:40am 14 15 mph 1007mb 27f
11:30am 10 17 mph 1006.8mb 26f
11:20am 10 15 mph 1007mb 26f
11:10am 11 15 mph 1007mb 26f
11:00am 11 16 mph 1007.8mb 26f
10:50am 11 15 mph 1008.3mb 25f
10:40am 10 13 mph 1008.7mb 26f
10:30am 13 16 mph 1008.7mb 26f
10:20am 9 13 mph 1009.7mb 26f
10:10am 8 13 mph 1010.5mb 25f
10:00am 10 15 mph 1011mb 25f
9:50am 10 16 mph 1010.8mb 24f
9:40am 11 16 mph 1011.1mb 24f
9:30am 13 17 mph 1011.7mb 24f
9:20am 9 14 mph 1012mb 24f
9:10am 14 20 mph 1012.3mb 24f
9:00am 15 22 mph 1012.7mb 24f
8:50am 14 18 mph 1012.7mb 24f
8:40am 16 20 mph 1014.1mb 24f
8:30am 16 22 mph 1014.7mb 24f
8:20am 14 20 mph 1014.8mb 24f
8:10am 13 17 mph 1015.1mb 24f
8:00am 15 21 mph 1014.9mb 24f
7:50am 13 17 mph 1015.3mb 24f
7:40am 13 16 mph 1015.5mb 24f
7:30am 11 15 mph 1016.3mb 24f
7:20am 11 17 mph 1017mb 24f
7:10am 10 14 mph 1017.9mb 24f
7:00am 11 13 mph 1018.2mb 24f
6:50am 10 14 mph 1018mb 24f
6:40am 14 17 mph 1018.2mb 24f
6:30am 18 22 mph 1018.9mb 24f
6:20am 20 22 mph 1019.3mb 24f
6:10am 20 22 mph 1019.2mb 24f
6:00am 18 22 mph 1019.6mb 25f
5:50am 17 21 mph 1019.7mb 25f
5:40am 10 15 mph 1020.1mb 25f
5:30am 10 13 mph 1020.4mb 25f
5:20am 8 13 mph 1020.5mb 25f
5:10am 7 10 mph 1020.9mb 25f
5:00am 11 15 mph 1020.7mb 25f
4:50am 10 14 mph 1020.7mb 24f
4:40am 10 14 mph 1020.9mb 24f
4:30am 10 11 mph 1021.2mb 24f
4:20am 9 11 mph 1021.8mb 24f
4:10am 8 10 mph 1022.1mb 24f
4:00am 8 10 mph 1022.2mb 24f
3:50am 8 11 mph 1022.4mb 24f
3:40am 8 9 mph 1022.4mb 24f
3:30am 7 8 mph 1022.6mb 24f
3:20am 7 9 mph 1022.9mb 24f
3:10am 7 9 mph 1023.2mb 25f
3:00am 8 10 mph 1023.6mb 25f
2:50am 7 10 mph 1024.2mb 25f
2:40am 8 9 mph 1024.4mb 25f
2:30am 8 11 mph 1024.7mb 25f
2:20am 7 9 mph 1025mb 25f
2:10am 6 8 mph 1025.5mb 24f
2:00am 5 7 mph 1025.7mb 24f
1:50am 6 9 mph 1025.7mb 25f
1:40am 8 10 mph 1025.9mb 25f
1:30am 8 10 mph 1025.7mb 25f
1:20am 10 11 mph 1026.2mb 25f
1:10am 9 10 mph 1026.2mb 24f
1:00am 9
mph
1026.4mb 24f
12:50am 13 14 mph 1026.7mb 24f
12:40am 10 13 mph 1027mb 25f
12:30am 14 16 mph 1026.8mb 25f
12:20am 13 14 mph 1026.9mb 24f
12:10am 13 14 mph 1027mb 24f
12:00am 11 13 mph 1027.4mb 24f
Mon 03/02 11:50pm 9 10 mph 1027.5mb 24f
11:40pm 11 13 mph 1027.6mb 24f
11:30pm 13 14 mph 1027.9mb 24f
11:20pm 13 14 mph 1028.2mb 24f
11:10pm 13 14 mph 1028.3mb 24f
11:00pm 10 11 mph 1028.6mb 24f
10:50pm 13 14 mph 1028.8mb 24f
10:40pm 15 16 mph 1028.9mb 24f
10:30pm 13 14 mph 1028.9mb 24f
10:20pm 13 14 mph 1029.2mb 24f
10:10pm 13 14 mph 1029mb 24f
10:00pm 13 14 mph 1029mb 24f
9:50pm 11 14 mph 1029.2mb 24f
9:40pm 11 14 mph 1029.4mb 24f
9:30pm 10 11 mph 1029.4mb 24f
9:20pm 11 13 mph 1029.4mb 24f
9:10pm 9 10 mph 1029.5mb 24f
9:00pm 9 10 mph 1029.6mb 24f
8:50pm 9 10 mph 1029.6mb 24f
8:40pm 8 9 mph 1029.8mb 24f
8:30pm 8
mph
1029.6mb 24f
8:20pm 9 10 mph 1030.1mb 24f
8:10pm 5 6 mph 1030.1mb 23f
8:00pm 7 8 mph 1030.1mb 24f
7:50pm 6 8 mph 1030.2mb 24f
7:40pm 6 7 mph 1030.3mb 24f
7:30pm 6 7 mph 1030.8mb 23f
7:20pm 6
mph
1030.8mb 23f
7:10pm 3 5 mph 1031.1mb 23f
7:00pm 5 6 mph 1031.2mb 23f
6:50pm 5
mph
1031.6mb 23f
6:40pm 5
mph
1031.6mb 22f
6:30pm 5 6 mph 1031.5mb 23f
6:20pm 5 6 mph 1031.6mb 23f
6:10pm 5
mph
1032mb 22f
6:00pm 3 5 mph 1032mb 23f
5:50pm 3 5 mph 1032.1mb 23f
5:40pm 5
mph
1032.1mb 23f
5:30pm 2
mph
1032mb 23f
5:20pm 1
mph
1032mb 24f
5:10pm 2
mph
1032.1mb 24f
5:00pm 3 5 mph 1032.2mb 24f
4:50pm 5
mph
1032.4mb 24f
4:40pm 3
mph
1032.5mb 24f
4:30pm 5
mph
1032.8mb 25f
4:20pm 5 6 mph 1032.9mb 25f
4:10pm 5
mph
1032.9mb 25f
4:00pm 3 5 mph 1032.8mb 26f
3:50pm 5 6 mph 1033.1mb 26f
3:40pm 6 7 mph 1033.2mb 26f
3:30pm 3 5 mph 1033.2mb 26f
3:20pm 8
mph
1033.5mb 26f
3:10pm 9 10 mph 1033.5mb 26f
3:00pm 9 10 mph 1033.7mb 25f
2:50pm 7 9 mph 1033.9mb 25f
2:40pm 11 13 mph 1033.8mb 26f
2:30pm 5 6 mph 1034mb 26f
2:20pm 5 6 mph 1033.9mb 26f
2:10pm 5 7 mph 1033.9mb 27f
2:00pm 5 7 mph 1034mb 27f
1:50pm 9 11 mph 1034.2mb 26f
1:40pm 8 10 mph 1034mb 27f
1:30pm 9 10 mph 1034.1mb 26f
1:20pm 8 9 mph 1034.4mb 26f
1:10pm 9 10 mph 1034.3mb 26f
1:00pm 9 10 mph 1034.4mb 26f
12:50pm 9 10 mph 1034.4mb 25f
12:40pm 11 13 mph 1034.3mb 26f
12:30pm 8
mph
1034.3mb 26f
12:20pm 11 13 mph 1034.5mb 26f
12:10pm 7 8 mph 1034.6mb 26f
12:00pm 9 10 mph 1034.6mb 27f